Time;durP1;ratioP1;P1;durP2;ratioP2;P2;SDS_P1;SDS_P2;PMS_P1;PMS_P2;Temp;Humidity;BMP_temperature;BMP_pressure;BME280_temperature;BME280_humidity;BME280_pressure;Samples;Min_cycle;Max_cycle;Signal;HPM_P1;HPM_P2
2024/02/07 00:02:43;;;;;;;14.77;7.32;;;;;;;;;;6224818;28;20573;-76
2024/02/07 00:05:45;;;;;;;13.40;7.07;;;;;;;;;;6249647;28;20035;-75
2024/02/07 00:08:50;;;;;;;13.68;6.90;;;;;;;;;;6227326;28;20068;-75
2024/02/07 00:11:52;;;;;;;12.50;7.03;;;;;;;;;;6235897;28;20042;-76
2024/02/07 00:14:55;;;;;;;13.57;6.53;;;;;;;;;;6225930;28;20058;-75
2024/02/07 00:18:00;;;;;;;10.45;6.40;;;;;;;;;;6216492;28;20065;-76
2024/02/07 00:21:02;;;;;;;10.75;6.32;;;;;;;;;;6245432;28;20039;-76
2024/02/07 00:24:06;;;;;;;10.95;6.25;;;;;;;;;;6249651;28;20038;-76
2024/02/07 00:27:10;;;;;;;12.82;5.70;;;;;;;;;;6221103;28;20049;-76
2024/02/07 00:30:13;;;;;;;10.55;6.35;;;;;;;;;;6244403;28;20046;-76
2024/02/07 00:33:29;;;;;;;12.25;6.03;;;;;;;;;;6234238;28;20060;-76
2024/02/07 00:36:31;;;;;;;18.48;7.05;;;;;;;;;;6230991;28;20045;-75
2024/02/07 00:39:36;;;;;;;8.68;5.30;;;;;;;;;;6235898;28;20051;-75
2024/02/07 00:42:38;;;;;;;12.27;6.78;;;;;;;;;;6231511;28;20042;-75
2024/02/07 00:45:40;;;;;;;13.93;6.38;;;;;;;;;;6266063;28;20054;-75
2024/02/07 00:48:43;;;;;;;14.90;6.60;;;;;;;;;;6235515;28;20042;-76
2024/02/07 00:51:45;;;;;;;9.95;6.00;;;;;;;;;;6205622;28;20857;-76
2024/02/07 00:54:47;;;;;;;12.88;6.35;;;;;;;;;;6204259;28;20045;-76
2024/02/07 00:57:50;;;;;;;10.35;5.70;;;;;;;;;;6226567;28;20181;-75
2024/02/07 01:00:52;;;;;;;8.18;5.50;;;;;;;;;;6244762;27;20046;-76
2024/02/07 01:03:56;;;;;;;13.73;7.85;;;;;;;;;;6244484;27;20435;-76
2024/02/07 01:06:58;;;;;;;11.77;6.07;;;;;;;;;;6228455;28;20046;-76
2024/02/07 01:10:05;;;;;;;10.13;5.57;;;;;;;;;;6250231;27;20547;-76
2024/02/07 01:13:08;;;;;;;10.48;5.60;;;;;;;;;;6212307;28;20710;-76
2024/02/07 01:16:10;;;;;;;12.40;5.57;;;;;;;;;;6244804;28;20141;-75
2024/02/07 01:19:13;;;;;;;10.60;6.82;;;;;;;;;;6221409;27;20053;-76
2024/02/07 01:22:16;;;;;;;15.00;6.45;;;;;;;;;;6228456;28;20041;-76
2024/02/07 01:25:18;;;;;;;14.07;6.75;;;;;;;;;;6261723;27;20048;-75
2024/02/07 01:28:20;;;;;;;9.18;5.95;;;;;;;;;;6234545;28;20058;-75
2024/02/07 01:31:23;;;;;;;10.60;5.65;;;;;;;;;;6256112;27;20639;-76
2024/02/07 01:34:25;;;;;;;9.40;4.75;;;;;;;;;;6222667;27;20120;-76
2024/02/07 01:37:28;;;;;;;10.43;5.43;;;;;;;;;;6213908;28;20053;-76
2024/02/07 01:40:37;;;;;;;10.35;5.80;;;;;;;;;;6236337;27;20658;-76
2024/02/07 01:43:39;;;;;;;10.75;5.60;;;;;;;;;;6217263;27;20818;-75
2024/02/07 01:46:42;;;;;;;12.35;3.70;;;;;;;;;;6235211;27;20136;-76
2024/02/07 01:49:50;;;;;;;10.68;5.57;;;;;;;;;;6252978;27;20045;-76
2024/02/07 01:52:55;;;;;;;9.02;4.78;;;;;;;;;;6211246;28;20496;-76
2024/02/07 01:55:58;;;;;;;12.93;6.95;;;;;;;;;;6221620;27;20056;-76
2024/02/07 01:59:05;;;;;;;16.25;6.22;;;;;;;;;;6233737;27;20141;-76
2024/02/07 02:02:11;;;;;;;9.32;5.30;;;;;;;;;;6280658;27;20051;-75
2024/02/07 02:05:14;;;;;;;9.65;6.05;;;;;;;;;;6235398;27;20039;-76
2024/02/07 02:08:16;;;;;;;8.27;4.78;;;;;;;;;;6238615;27;20057;-76
2024/02/07 02:11:29;;;;;;;7.57;4.95;;;;;;;;;;6256155;27;20114;-76
2024/02/07 02:14:31;;;;;;;7.38;4.50;;;;;;;;;;6287508;27;20087;-76
2024/02/07 02:17:34;;;;;;;8.82;4.47;;;;;;;;;;6237466;27;20467;-76
2024/02/07 02:20:38;;;;;;;10.50;5.53;;;;;;;;;;6214655;27;20042;-75
2024/02/07 02:24:08;;;;;;;9.68;4.43;;;;;;;;;;6216850;28;20859;-75
2024/02/07 02:27:37;;;;;;;10.30;4.47;;;;;;;;;;6235180;27;20076;-77
2024/02/07 02:30:50;;;;;;;7.15;4.28;;;;;;;;;;6227210;28;20097;-77
2024/02/07 02:33:56;;;;;;;7.85;5.75;;;;;;;;;;6225180;28;20053;-77
2024/02/07 02:36:58;;;;;;;8.10;4.55;;;;;;;;;;6217722;28;20054;-77
2024/02/07 02:40:05;;;;;;;7.47;3.78;;;;;;;;;;6225710;28;20042;-77
2024/02/07 02:43:10;;;;;;;14.38;3.92;;;;;;;;;;6229403;27;20106;-77
2024/02/07 02:46:12;;;;;;;10.27;4.57;;;;;;;;;;6234175;27;20978;-77
2024/02/07 02:49:14;;;;;;;7.20;4.47;;;;;;;;;;6227925;28;20049;-76
2024/02/07 02:52:17;;;;;;;8.02;4.53;;;;;;;;;;6236477;27;20060;-76
2024/02/07 02:55:19;;;;;;;7.88;4.05;;;;;;;;;;6222426;28;20128;-77
2024/02/07 02:58:21;;;;;;;8.65;4.63;;;;;;;;;;6217137;28;20831;-77
2024/02/07 03:01:41;;;;;;;6.82;4.07;;;;;;;;;;6243775;27;20043;-77
2024/02/07 03:04:43;;;;;;;8.75;5.78;;;;;;;;;;6214545;27;20946;-77
2024/02/07 03:08:05;;;;;;;10.00;5.63;;;;;;;;;;6224610;28;20761;-77
2024/02/07 03:11:08;;;;;;;8.38;5.35;;;;;;;;;;6224500;28;20050;-77
2024/02/07 03:14:11;;;;;;;11.75;5.20;;;;;;;;;;6229874;27;20101;-77
2024/02/07 03:17:13;;;;;;;10.13;5.25;;;;;;;;;;6242002;27;20042;-77
2024/02/07 03:20:16;;;;;;;7.70;4.43;;;;;;;;;;6233345;27;20038;-77
2024/02/07 03:23:19;;;;;;;7.57;4.05;;;;;;;;;;6243265;27;20602;-77
2024/02/07 03:26:22;;;;;;;8.25;5.70;;;;;;;;;;6202501;28;20065;-77
2024/02/07 03:29:25;;;;;;;7.30;4.97;;;;;;;;;;6230484;28;20047;-77
2024/02/07 03:32:29;;;;;;;16.17;4.50;;;;;;;;;;6230193;28;20045;-77
2024/02/07 03:35:32;;;;;;;7.32;4.60;;;;;;;;;;6232036;27;20727;-76
2024/02/07 03:38:35;;;;;;;10.63;6.50;;;;;;;;;;6244080;27;20060;-77
2024/02/07 03:41:37;;;;;;;10.48;5.88;;;;;;;;;;6240468;28;20076;-77
2024/02/07 03:44:55;;;;;;;16.98;8.77;;;;;;;;;;6250944;27;20743;-77
2024/02/07 03:47:57;;;;;;;12.32;5.13;;;;;;;;;;6228841;27;20080;-77
2024/02/07 03:51:01;;;;;;;8.70;5.05;;;;;;;;;;6218256;28;20132;-77
2024/02/07 03:54:04;;;;;;;10.77;5.93;;;;;;;;;;6234468;28;20582;-77
2024/02/07 03:57:06;;;;;;;9.23;6.28;;;;;;;;;;6226322;28;20057;-76
2024/02/07 04:00:15;;;;;;;13.38;5.53;;;;;;;;;;6289797;27;20051;-76
2024/02/07 04:03:20;;;;;;;9.90;5.40;;;;;;;;;;6255652;27;20045;-77
2024/02/07 04:06:24;;;;;;;9.93;5.05;;;;;;;;;;6208600;28;20049;-76
2024/02/07 04:09:28;;;;;;;11.25;5.40;;;;;;;;;;6223448;28;20509;-77
2024/02/07 05:15:58;;;;;;;11.45;6.45;;;;;;;;;;6220500;28;20049;-75
2024/02/07 05:19:01;;;;;;;12.50;7.45;;;;;;;;;;6232621;27;20051;-76
2024/02/07 05:22:04;;;;;;;10.82;6.28;;;;;;;;;;6240878;27;20038;-76
2024/02/07 05:25:08;;;;;;;9.82;5.72;;;;;;;;;;6232984;27;20040;-76
2024/02/07 05:28:12;;;;;;;11.98;7.25;;;;;;;;;;6244222;27;20041;-76
2024/02/07 05:31:15;;;;;;;12.38;6.00;;;;;;;;;;6249686;27;20046;-77
2024/02/07 05:34:18;;;;;;;14.55;7.20;;;;;;;;;;6236110;27;20083;-77
2024/02/07 05:37:20;;;;;;;11.02;5.93;;;;;;;;;;6216022;27;20505;-76
2024/02/07 05:40:23;;;;;;;11.25;6.18;;;;;;;;;;6236326;27;20733;-77
2024/02/07 05:43:26;;;;;;;12.10;7.10;;;;;;;;;;6232846;27;20045;-75
2024/02/07 05:46:29;;;;;;;12.57;6.63;;;;;;;;;;6200166;28;20061;-76
2024/02/07 05:49:31;;;;;;;16.80;6.50;;;;;;;;;;6217636;28;20618;-75
2024/02/07 05:52:34;;;;;;;11.05;6.70;;;;;;;;;;6236161;27;20066;-75
2024/02/07 05:55:36;;;;;;;8.82;6.47;;;;;;;;;;6218739;27;20053;-76
2024/02/07 05:58:41;;;;;;;10.48;7.57;;;;;;;;;;6230179;28;20054;-76
2024/02/07 06:01:45;;;;;;;21.25;9.15;;;;;;;;;;6206680;28;20429;-76
2024/02/07 06:04:51;;;;;;;19.73;9.50;;;;;;;;;;6238074;27;20078;-77
2024/02/07 06:07:53;;;;;;;15.98;8.95;;;;;;;;;;6226251;27;20190;-76
2024/02/07 06:10:58;;;;;;;69.10;30.63;;;;;;;;;;6227411;27;20064;-76
2024/02/07 06:14:04;;;;;;;47.58;24.17;;;;;;;;;;6252296;27;20352;-76
2024/02/07 06:17:07;;;;;;;16.75;8.48;;;;;;;;;;6225754;28;20501;-76
2024/02/07 06:20:11;;;;;;;11.68;7.38;;;;;;;;;;6225879;28;20873;-76
2024/02/07 06:23:13;;;;;;;8.82;6.50;;;;;;;;;;6235196;27;20041;-76
2024/02/07 06:26:16;;;;;;;11.85;6.13;;;;;;;;;;6242767;27;20360;-76
2024/02/07 06:29:18;;;;;;;16.05;6.97;;;;;;;;;;6241359;28;20033;-76
2024/02/07 06:32:20;;;;;;;20.92;8.25;;;;;;;;;;6263556;27;20053;-76
2024/02/07 06:35:23;;;;;;;16.70;8.65;;;;;;;;;;6235160;28;20045;-76
2024/02/07 06:38:25;;;;;;;21.58;9.25;;;;;;;;;;6227118;28;20046;-77
2024/02/07 06:41:29;;;;;;;20.13;9.40;;;;;;;;;;6238648;27;20827;-77
2024/02/07 06:44:31;;;;;;;16.17;10.13;;;;;;;;;;6229576;28;20174;-77
2024/02/07 06:47:34;;;;;;;16.30;7.53;;;;;;;;;;6223540;27;20459;-77
2024/02/07 06:50:36;;;;;;;15.68;8.30;;;;;;;;;;6212439;27;20793;-77
2024/02/07 06:53:38;;;;;;;15.05;7.97;;;;;;;;;;6231515;28;20175;-77
2024/02/07 06:56:41;;;;;;;20.60;8.30;;;;;;;;;;6229446;28;20057;-77
2024/02/07 06:59:44;;;;;;;17.38;7.72;;;;;;;;;;6226283;28;20182;-77
2024/02/07 07:02:46;;;;;;;31.40;22.70;;;;;;;;;;6234688;27;20056;-77
2024/02/07 07:05:52;;;;;;;18.45;10.38;;;;;;;;;;6249880;27;20042;-77
2024/02/07 07:08:54;;;;;;;13.25;9.15;;;;;;;;;;6229268;28;20187;-76
2024/02/07 07:11:56;;;;;;;13.95;8.20;;;;;;;;;;6209214;28;20169;-76
2024/02/07 07:14:58;;;;;;;13.88;6.20;;;;;;;;;;6223225;28;20554;-76
2024/02/07 07:18:01;;;;;;;12.10;6.72;;;;;;;;;;6240193;27;20049;-76
2024/02/07 07:21:03;;;;;;;14.38;8.07;;;;;;;;;;6231883;28;20190;-77
2024/02/07 07:24:06;;;;;;;10.85;5.90;;;;;;;;;;6222221;28;20033;-77
2024/02/07 07:27:08;;;;;;;14.15;9.45;;;;;;;;;;6231104;27;20053;-76
2024/02/07 07:30:12;;;;;;;14.05;6.95;;;;;;;;;;6229690;28;20423;-76
2024/02/07 07:33:14;;;;;;;8.70;6.40;;;;;;;;;;6240297;27;20067;-76
2024/02/07 07:36:17;;;;;;;10.68;6.88;;;;;;;;;;6241578;27;20069;-79
2024/02/07 07:39:19;;;;;;;11.07;5.72;;;;;;;;;;6253387;27;20056;-79
2024/02/07 07:42:21;;;;;;;8.57;5.15;;;;;;;;;;6190414;28;20600;-80
2024/02/07 07:45:24;;;;;;;11.05;5.03;;;;;;;;;;6204193;28;20060;-81
2024/02/07 07:48:26;;;;;;;13.23;5.82;;;;;;;;;;6229237;27;20047;-79
2024/02/07 07:51:29;;;;;;;11.23;6.85;;;;;;;;;;6249323;28;20060;-78
2024/02/07 07:54:32;;;;;;;10.50;6.05;;;;;;;;;;6204644;28;20053;-80
2024/02/07 07:57:34;;;;;;;12.77;5.93;;;;;;;;;;6238468;28;20065;-78
2024/02/07 08:00:37;;;;;;;12.57;8.45;;;;;;;;;;6227602;27;20888;-80
2024/02/07 08:03:40;;;;;;;17.38;8.95;;;;;;;;;;6221177;28;20180;-82
2024/02/07 08:06:42;;;;;;;16.50;9.00;;;;;;;;;;6228628;28;20855;-80
2024/02/07 08:09:48;;;;;;;16.92;10.65;;;;;;;;;;6253713;28;20221;-80
2024/02/07 08:12:50;;;;;;;29.58;14.55;;;;;;;;;;6219280;28;20052;-80
2024/02/07 08:15:54;;;;;;;23.02;13.90;;;;;;;;;;6252460;28;20065;-80
2024/02/07 08:18:56;;;;;;;22.02;13.55;;;;;;;;;;6250575;28;20049;-76
2024/02/07 08:21:58;;;;;;;19.92;12.13;;;;;;;;;;6227073;28;20049;-73
2024/02/07 08:25:00;;;;;;;16.05;11.05;;;;;;;;;;6262992;28;20061;-74
2024/02/07 08:28:02;;;;;;;24.20;13.70;;;;;;;;;;6278102;28;20043;-75
2024/02/07 08:31:04;;;;;;;21.48;12.32;;;;;;;;;;6240107;28;20046;-74
2024/02/07 08:34:06;;;;;;;13.90;10.38;;;;;;;;;;6233902;28;20105;-75
2024/02/07 08:37:10;;;;;;;13.13;8.85;;;;;;;;;;6245920;28;20088;-76
2024/02/07 08:40:12;;;;;;;16.60;9.48;;;;;;;;;;6234672;28;20042;-73
2024/02/07 08:43:16;;;;;;;12.57;8.32;;;;;;;;;;6235050;28;20064;-75
2024/02/07 08:46:18;;;;;;;15.25;9.73;;;;;;;;;;6229657;28;20173;-75
2024/02/07 08:49:21;;;;;;;12.85;7.97;;;;;;;;;;6233623;28;20198;-74
2024/02/07 08:52:23;;;;;;;11.18;7.00;;;;;;;;;;6242677;27;20056;-76
2024/02/07 08:55:26;;;;;;;17.15;6.40;;;;;;;;;;6236942;28;20048;-76
2024/02/07 08:58:28;;;;;;;13.98;6.20;;;;;;;;;;6232307;28;20032;-76
2024/02/07 09:01:32;;;;;;;9.98;7.15;;;;;;;;;;6251924;28;20071;-77
2024/02/07 09:04:35;;;;;;;10.88;6.78;;;;;;;;;;6225989;28;20053;-76
2024/02/07 09:07:38;;;;;;;15.90;7.20;;;;;;;;;;6223502;28;20049;-78
2024/02/07 09:10:41;;;;;;;14.15;6.95;;;;;;;;;;6214751;28;20045;-78
2024/02/07 09:13:43;;;;;;;8.98;4.55;;;;;;;;;;6240600;28;20536;-77
2024/02/07 09:16:45;;;;;;;15.57;7.82;;;;;;;;;;6235617;28;20046;-76
2024/02/07 09:19:48;;;;;;;11.82;6.75;;;;;;;;;;6223939;28;20137;-77
2024/02/07 09:22:50;;;;;;;14.20;7.32;;;;;;;;;;6215143;28;20129;-76
2024/02/07 09:25:52;;;;;;;14.75;8.27;;;;;;;;;;6244547;27;20789;-77
2024/02/07 09:28:54;;;;;;;17.42;7.65;;;;;;;;;;6247894;27;20235;-77
2024/02/07 09:31:57;;;;;;;12.38;6.70;;;;;;;;;;6227798;28;20508;-76
2024/02/07 09:35:04;;;;;;;10.63;6.60;;;;;;;;;;6236766;27;20042;-75
2024/02/07 09:38:06;;;;;;;10.50;6.00;;;;;;;;;;6236253;27;20044;-77
2024/02/07 09:41:13;;;;;;;12.45;6.55;;;;;;;;;;6242229;27;20053;-79
2024/02/07 09:44:16;;;;;;;11.05;6.72;;;;;;;;;;6227600;28;20153;-76
2024/02/07 09:47:20;;;;;;;12.95;7.10;;;;;;;;;;6250255;28;20049;-76
2024/02/07 09:50:22;;;;;;;15.25;8.35;;;;;;;;;;6241481;27;20066;-77
2024/02/07 09:53:25;;;;;;;14.75;7.88;;;;;;;;;;6246948;28;20038;-77
2024/02/07 09:56:29;;;;;;;13.07;5.68;;;;;;;;;;6232123;28;20049;-76
2024/02/07 09:59:32;;;;;;;17.92;10.43;;;;;;;;;;6230202;28;20127;-76
2024/02/07 10:02:39;;;;;;;10.05;6.13;;;;;;;;;;6226940;28;20153;-75
2024/02/07 10:05:47;;;;;;;14.90;7.30;;;;;;;;;;6226906;28;20777;-76
2024/02/07 10:08:49;;;;;;;12.27;7.93;;;;;;;;;;6213342;27;20537;-76
2024/02/07 10:11:52;;;;;;;17.77;10.75;;;;;;;;;;6225399;27;20579;-76
2024/02/07 10:14:55;;;;;;;16.98;8.15;;;;;;;;;;6294599;27;20587;-76
2024/02/07 10:17:57;;;;;;;8.10;5.97;;;;;;;;;;6230065;27;20053;-76
2024/02/07 10:21:00;;;;;;;9.02;5.68;;;;;;;;;;6239668;28;20930;-76
2024/02/07 10:24:05;;;;;;;14.55;8.80;;;;;;;;;;6207084;28;20048;-77
2024/02/07 10:27:07;;;;;;;11.98;6.70;;;;;;;;;;6213724;28;20049;-77
2024/02/07 10:30:10;;;;;;;12.05;6.32;;;;;;;;;;6242500;27;20049;-76
2024/02/07 10:33:14;;;;;;;14.80;6.70;;;;;;;;;;6236036;28;20789;-77
2024/02/07 10:36:32;;;;;;;14.35;7.57;;;;;;;;;;6226879;28;20448;-77
2024/02/07 10:39:36;;;;;;;12.20;6.88;;;;;;;;;;6242995;27;20166;-77
2024/02/07 10:42:39;;;;;;;12.10;7.55;;;;;;;;;;6263648;27;20056;-76
2024/02/07 10:45:42;;;;;;;13.80;6.35;;;;;;;;;;6203607;28;20056;-76
2024/02/07 10:48:45;;;;;;;15.05;7.78;;;;;;;;;;6262874;27;20559;-77
2024/02/07 10:51:47;;;;;;;13.13;7.25;;;;;;;;;;6241508;28;20231;-77
2024/02/07 10:54:50;;;;;;;12.00;6.00;;;;;;;;;;6241479;28;20034;-77
2024/02/07 10:57:55;;;;;;;9.02;5.60;;;;;;;;;;6250934;28;20038;-77
2024/02/07 11:00:58;;;;;;;13.00;5.85;;;;;;;;;;6209429;28;20045;-77
2024/02/07 11:04:00;;;;;;;10.70;5.22;;;;;;;;;;6219444;28;20060;-77
2024/02/07 11:07:03;;;;;;;12.55;6.82;;;;;;;;;;6230571;28;20094;-77
2024/02/07 11:10:10;;;;;;;9.10;5.18;;;;;;;;;;6252507;27;20688;-76
2024/02/07 11:13:18;;;;;;;10.23;5.13;;;;;;;;;;6249832;28;20081;-78
2024/02/07 11:16:22;;;;;;;12.05;4.75;;;;;;;;;;6238801;27;20559;-78
2024/02/07 11:19:26;;;;;;;9.00;5.38;;;;;;;;;;6244068;28;20052;-77
2024/02/07 11:22:41;;;;;;;5.95;4.32;;;;;;;;;;6239121;27;20092;-77
2024/02/07 11:25:45;;;;;;;5.18;3.25;;;;;;;;;;6241250;27;20152;-77
2024/02/07 11:28:47;;;;;;;3.40;1.45;;;;;;;;;;6219244;28;20044;-77
2024/02/07 11:31:55;;;;;;;5.10;1.83;;;;;;;;;;6221193;28;20045;-77
2024/02/07 11:34:57;;;;;;;5.35;2.60;;;;;;;;;;6232447;28;20045;-77
2024/02/07 11:38:05;;;;;;;3.90;2.35;;;;;;;;;;6238873;28;20324;-78
2024/02/07 11:41:07;;;;;;;5.28;3.85;;;;;;;;;;6234078;28;20101;-78
2024/02/07 11:44:11;;;;;;;5.10;2.10;;;;;;;;;;6216368;28;20146;-78
2024/02/07 11:47:30;;;;;;;4.93;2.13;;;;;;;;;;6247955;27;20080;-79
2024/02/07 11:50:37;;;;;;;5.25;2.63;;;;;;;;;;6212229;28;20638;-78
2024/02/07 11:53:41;;;;;;;4.72;3.17;;;;;;;;;;6247717;27;20047;-78
2024/02/07 11:56:43;;;;;;;6.05;2.15;;;;;;;;;;6196114;28;20045;-78
2024/02/07 11:59:45;;;;;;;6.85;2.80;;;;;;;;;;6208319;28;20102;-80
2024/02/07 12:02:52;;;;;;;4.55;2.72;;;;;;;;;;6210844;28;20384;-79
2024/02/07 12:05:54;;;;;;;7.00;2.05;;;;;;;;;;6242670;28;20057;-80
2024/02/07 12:08:56;;;;;;;5.88;2.63;;;;;;;;;;6205918;28;20058;-76
2024/02/07 12:12:01;;;;;;;6.82;3.67;;;;;;;;;;6201680;28;20448;-79
2024/02/07 12:15:04;;;;;;;3.65;2.30;;;;;;;;;;6244520;28;20033;-76
2024/02/07 12:18:07;;;;;;;4.72;1.80;;;;;;;;;;6254060;28;20067;-78
2024/02/07 12:21:09;;;;;;;4.80;2.30;;;;;;;;;;6225050;28;20054;-78
2024/02/07 12:24:13;;;;;;;3.85;2.33;;;;;;;;;;6252991;28;20041;-78
2024/02/07 12:27:16;;;;;;;6.03;2.95;;;;;;;;;;6223557;28;20042;-78
2024/02/07 12:30:19;;;;;;;3.35;1.83;;;;;;;;;;6227374;28;20524;-77
2024/02/07 12:33:25;;;;;;;6.80;2.45;;;;;;;;;;6207574;28;20224;-78
2024/02/07 12:36:28;;;;;;;11.40;5.60;;;;;;;;;;6245956;27;20057;-76
2024/02/07 12:39:30;;;;;;;6.00;3.53;;;;;;;;;;6246270;28;20047;-77
2024/02/07 12:42:34;;;;;;;7.88;2.67;;;;;;;;;;6244096;28;20133;-78
2024/02/07 12:45:37;;;;;;;4.65;2.72;;;;;;;;;;6229273;28;20034;-78
2024/02/07 12:48:39;;;;;;;4.47;3.13;;;;;;;;;;6209516;28;20045;-78
2024/02/07 12:51:42;;;;;;;5.97;2.75;;;;;;;;;;6252433;28;20173;-78
2024/02/07 12:54:44;;;;;;;5.03;2.03;;;;;;;;;;6231506;28;20094;-77
2024/02/07 12:57:47;;;;;;;4.15;2.55;;;;;;;;;;6259212;27;20061;-78
2024/02/07 13:01:00;;;;;;;7.30;3.35;;;;;;;;;;6224140;28;20460;-78
2024/02/07 13:04:03;;;;;;;3.53;2.47;;;;;;;;;;6286487;27;20120;-79
2024/02/07 13:07:09;;;;;;;6.13;2.15;;;;;;;;;;6232095;28;20059;-79
2024/02/07 13:10:14;;;;;;;5.75;2.08;;;;;;;;;;6248575;28;20049;-79
2024/02/07 13:13:17;;;;;;;5.03;2.10;;;;;;;;;;6229510;27;20052;-78
2024/02/07 13:16:22;;;;;;;6.80;3.20;;;;;;;;;;6246371;27;20045;-78
2024/02/07 13:19:24;;;;;;;6.70;3.50;;;;;;;;;;6230830;28;20610;-76
2024/02/07 13:22:28;;;;;;;4.97;3.13;;;;;;;;;;6245048;28;20423;-77
2024/02/07 13:25:30;;;;;;;7.55;4.40;;;;;;;;;;6248403;27;20108;-77
2024/02/07 13:28:36;;;;;;;5.13;2.58;;;;;;;;;;6224776;27;20040;-77
2024/02/07 13:31:40;;;;;;;7.22;2.97;;;;;;;;;;6278403;27;20056;-77
2024/02/07 13:34:42;;;;;;;5.57;2.78;;;;;;;;;;6271719;27;20370;-77
2024/02/07 13:37:48;;;;;;;7.28;3.95;;;;;;;;;;6240878;28;20504;-77
2024/02/07 13:40:51;;;;;;;5.60;2.38;;;;;;;;;;6244519;27;20191;-77
2024/02/07 13:43:56;;;;;;;6.43;2.72;;;;;;;;;;6299883;28;20049;-78
2024/02/07 13:47:01;;;;;;;6.18;3.67;;;;;;;;;;6229878;27;20653;-77
2024/02/07 13:50:05;;;;;;;10.95;3.53;;;;;;;;;;6246079;28;20135;-77
2024/02/07 13:53:09;;;;;;;6.43;3.45;;;;;;;;;;6228654;28;20702;-76
2024/02/07 13:56:11;;;;;;;8.95;3.50;;;;;;;;;;6266275;28;20045;-77
2024/02/07 13:59:13;;;;;;;5.10;2.88;;;;;;;;;;6242308;28;20042;-77
2024/02/07 14:02:15;;;;;;;5.18;1.85;;;;;;;;;;6240321;28;20084;-75
2024/02/07 14:05:18;;;;;;;5.28;2.33;;;;;;;;;;6214340;27;20617;-75
2024/02/07 14:08:20;;;;;;;6.43;2.42;;;;;;;;;;6237150;28;20077;-75
2024/02/07 14:11:23;;;;;;;6.07;2.30;;;;;;;;;;6240307;28;20275;-75
2024/02/07 14:14:28;;;;;;;6.88;3.30;;;;;;;;;;6215630;28;20042;-77
2024/02/07 14:17:30;;;;;;;6.75;2.60;;;;;;;;;;6231928;28;20050;-76
2024/02/07 14:20:32;;;;;;;8.40;2.90;;;;;;;;;;6244648;27;20064;-76
2024/02/07 14:23:36;;;;;;;7.93;3.30;;;;;;;;;;6254116;27;20075;-74
2024/02/07 14:26:38;;;;;;;4.65;3.45;;;;;;;;;;6228118;28;20045;-74
2024/02/07 14:29:40;;;;;;;8.93;2.97;;;;;;;;;;6240372;27;20089;-74
2024/02/07 14:32:42;;;;;;;8.15;4.97;;;;;;;;;;6241126;27;20056;-74
2024/02/07 14:35:45;;;;;;;5.35;3.30;;;;;;;;;;6232078;27;20080;-73
2024/02/07 14:38:48;;;;;;;6.32;2.78;;;;;;;;;;6232718;27;20079;-74
2024/02/07 14:41:50;;;;;;;7.65;4.13;;;;;;;;;;6232107;28;21027;-74
2024/02/07 14:44:54;;;;;;;7.20;4.55;;;;;;;;;;6230067;28;20043;-75
2024/02/07 14:48:00;;;;;;;14.30;3.22;;;;;;;;;;6249682;27;20045;-78
2024/02/07 14:51:02;;;;;;;9.43;2.90;;;;;;;;;;6267925;28;20125;-76
2024/02/07 14:54:05;;;;;;;6.85;2.38;;;;;;;;;;6223038;28;20694;-75
2024/02/07 14:57:09;;;;;;;6.57;3.70;;;;;;;;;;6225824;28;20045;-74
2024/02/07 15:00:13;;;;;;;8.77;3.85;;;;;;;;;;6236802;27;20053;-77
2024/02/07 15:03:15;;;;;;;9.52;4.32;;;;;;;;;;6220308;28;20079;-79
2024/02/07 15:06:17;;;;;;;5.80;3.53;;;;;;;;;;6245150;28;20200;-78
2024/02/07 15:09:20;;;;;;;6.63;3.65;;;;;;;;;;6237065;28;20126;-78
2024/02/07 15:12:22;;;;;;;6.00;3.85;;;;;;;;;;6249943;27;20184;-76
2024/02/07 15:15:24;;;;;;;6.05;3.75;;;;;;;;;;6241916;27;20649;-76
2024/02/07 15:18:26;;;;;;;10.00;3.25;;;;;;;;;;6243066;28;20045;-76
2024/02/07 15:21:29;;;;;;;7.90;4.07;;;;;;;;;;6229448;28;20186;-74
2024/02/07 15:24:31;;;;;;;9.27;3.28;;;;;;;;;;6246010;27;20504;-76
2024/02/07 15:27:34;;;;;;;11.10;4.68;;;;;;;;;;6256186;27;20042;-74
2024/02/07 15:30:38;;;;;;;10.63;4.85;;;;;;;;;;6229507;27;20042;-76
2024/02/07 15:33:40;;;;;;;9.13;4.80;;;;;;;;;;6247908;27;20048;-76
2024/02/07 15:36:46;;;;;;;5.90;3.80;;;;;;;;;;6270038;27;20108;-76
2024/02/07 15:39:48;;;;;;;8.30;3.65;;;;;;;;;;6271812;28;20051;-76
2024/02/07 15:42:50;;;;;;;9.60;3.83;;;;;;;;;;6255649;27;20050;-77
2024/02/07 15:45:52;;;;;;;8.23;3.13;;;;;;;;;;6223455;27;20039;-74
2024/02/07 15:48:55;;;;;;;11.05;4.05;;;;;;;;;;6227802;28;20042;-75
2024/02/07 15:52:10;;;;;;;8.57;5.00;;;;;;;;;;6230658;28;20148;-74
2024/02/07 15:55:12;;;;;;;14.25;10.10;;;;;;;;;;6230206;28;20744;-75
2024/02/07 15:58:16;;;;;;;12.10;8.93;;;;;;;;;;6238528;28;20053;-76
2024/02/07 16:01:20;;;;;;;9.95;4.25;;;;;;;;;;6249002;28;20053;-77
2024/02/07 16:04:37;;;;;;;9.82;4.75;;;;;;;;;;6233851;28;20416;-75
2024/02/07 16:07:41;;;;;;;29.92;13.45;;;;;;;;;;6226424;28;20057;-76
2024/02/07 16:10:43;;;;;;;19.00;10.52;;;;;;;;;;6230931;28;20507;-76
2024/02/07 16:13:47;;;;;;;29.60;15.57;;;;;;;;;;6258662;28;20046;-75
2024/02/07 16:16:50;;;;;;;35.88;17.42;;;;;;;;;;6222162;28;20049;-76
2024/02/07 16:19:57;;;;;;;27.10;12.80;;;;;;;;;;6232437;28;20078;-75
2024/02/07 16:23:02;;;;;;;21.10;10.48;;;;;;;;;;6253283;28;20049;-76
2024/02/07 16:26:06;;;;;;;15.73;8.93;;;;;;;;;;6238064;28;20074;-74
2024/02/07 16:29:08;;;;;;;16.63;9.98;;;;;;;;;;6196853;28;20052;-75
2024/02/07 16:32:10;;;;;;;15.30;8.85;;;;;;;;;;6295558;27;20042;-75
2024/02/07 16:35:13;;;;;;;32.25;14.43;;;;;;;;;;6231309;28;20049;-75
2024/02/07 16:38:16;;;;;;;30.20;16.67;;;;;;;;;;6230870;27;20569;-75
2024/02/07 16:41:18;;;;;;;33.30;14.77;;;;;;;;;;6239663;27;20061;-74
2024/02/07 16:44:23;;;;;;;18.45;10.45;;;;;;;;;;6238973;27;20049;-75
2024/02/07 16:47:25;;;;;;;17.88;8.00;;;;;;;;;;6230717;28;20054;-75
2024/02/07 16:50:28;;;;;;;19.10;9.68;;;;;;;;;;6242549;28;20207;-77
2024/02/07 16:53:30;;;;;;;22.95;11.18;;;;;;;;;;6244224;27;20053;-75
2024/02/07 16:56:33;;;;;;;26.95;14.00;;;;;;;;;;6311808;27;20580;-75
2024/02/07 16:59:35;;;;;;;31.33;17.75;;;;;;;;;;6245282;27;20133;-75
2024/02/07 17:02:38;;;;;;;27.30;15.35;;;;;;;;;;6229697;27;20045;-75
2024/02/07 17:05:41;;;;;;;22.48;12.40;;;;;;;;;;6241468;27;20052;-75
2024/02/07 17:08:43;;;;;;;12.80;8.52;;;;;;;;;;6196677;28;20076;-74
2024/02/07 17:11:46;;;;;;;19.38;9.68;;;;;;;;;;6279755;27;20054;-75
2024/02/07 17:14:49;;;;;;;79.28;31.83;;;;;;;;;;6231317;28;20432;-74
2024/02/07 17:17:51;;;;;;;127.22;42.55;;;;;;;;;;6229356;27;20129;-74
2024/02/07 17:20:56;;;;;;;31.88;13.68;;;;;;;;;;6236446;27;20520;-74
2024/02/07 17:23:59;;;;;;;30.40;12.55;;;;;;;;;;6221766;28;20049;-74
2024/02/07 17:27:01;;;;;;;32.35;10.07;;;;;;;;;;6235903;28;20540;-74
2024/02/07 17:30:03;;;;;;;113.95;38.75;;;;;;;;;;6244776;27;20071;-74
2024/02/07 17:33:10;;;;;;;76.15;29.30;;;;;;;;;;6234038;27;20049;-75
2024/02/07 17:36:13;;;;;;;16.90;9.55;;;;;;;;;;6206235;28;20050;-74
2024/02/07 17:39:15;;;;;;;17.65;9.18;;;;;;;;;;6235192;27;20052;-75
2024/02/07 17:42:17;;;;;;;20.10;13.32;;;;;;;;;;6224946;27;20058;-75
2024/02/07 17:45:25;;;;;;;17.58;9.40;;;;;;;;;;6249814;27;20051;-75
2024/02/07 17:48:28;;;;;;;19.25;10.25;;;;;;;;;;6238499;28;20045;-75
2024/02/07 17:51:31;;;;;;;21.75;12.15;;;;;;;;;;6230868;27;20045;-75
2024/02/07 17:54:34;;;;;;;26.48;12.65;;;;;;;;;;6249438;27;20057;-75
2024/02/07 17:57:38;;;;;;;28.65;13.48;;;;;;;;;;6237770;27;20481;-75
2024/02/07 18:00:41;;;;;;;23.83;11.60;;;;;;;;;;6227175;28;20538;-75
2024/02/07 18:03:43;;;;;;;21.60;12.48;;;;;;;;;;6312258;27;20136;-75
2024/02/07 18:06:46;;;;;;;17.98;10.75;;;;;;;;;;6238539;27;20512;-75
2024/02/07 18:09:49;;;;;;;22.17;14.43;;;;;;;;;;6243778;28;20060;-75
2024/02/07 18:12:52;;;;;;;22.63;11.80;;;;;;;;;;6219558;27;20160;-74
2024/02/07 18:15:55;;;;;;;20.77;9.93;;;;;;;;;;6234160;27;20039;-74
2024/02/07 18:18:58;;;;;;;24.58;12.77;;;;;;;;;;6229693;27;20822;-75
2024/02/07 18:22:00;;;;;;;23.50;12.18;;;;;;;;;;6223469;28;20049;-75
2024/02/07 18:25:03;;;;;;;65.22;31.23;;;;;;;;;;6230050;28;20067;-75
2024/02/07 18:28:06;;;;;;;60.63;30.45;;;;;;;;;;6248740;27;20600;-75
2024/02/07 18:31:09;;;;;;;94.45;54.25;;;;;;;;;;6265605;27;20061;-74
2024/02/07 18:34:11;;;;;;;53.65;27.48;;;;;;;;;;6214195;27;20212;-76
2024/02/07 18:37:14;;;;;;;51.20;27.08;;;;;;;;;;6208450;28;20047;-76
2024/02/07 18:40:16;;;;;;;49.75;28.23;;;;;;;;;;6254367;27;20042;-76
2024/02/07 18:43:20;;;;;;;56.95;28.52;;;;;;;;;;6256066;27;20508;-75
2024/02/07 18:46:23;;;;;;;23.63;12.68;;;;;;;;;;6246124;27;20441;-75
2024/02/07 18:49:26;;;;;;;23.20;11.57;;;;;;;;;;6239592;27;20735;-76
2024/02/07 18:52:28;;;;;;;16.17;10.50;;;;;;;;;;6208058;28;20044;-75
2024/02/07 18:55:31;;;;;;;15.05;8.20;;;;;;;;;;6238414;27;20567;-75
2024/02/07 18:58:35;;;;;;;15.00;11.05;;;;;;;;;;6226240;28;20054;-76
2024/02/07 19:01:38;;;;;;;14.48;10.40;;;;;;;;;;6283861;27;20729;-75
2024/02/07 19:04:43;;;;;;;21.75;9.82;;;;;;;;;;6226587;27;20047;-75
2024/02/07 19:07:45;;;;;;;18.77;10.60;;;;;;;;;;6267695;28;20451;-75
2024/02/07 19:10:51;;;;;;;21.15;11.73;;;;;;;;;;6233344;28;20054;-75